Decker Prairie, TX (77354)

6:14 AM CST on December 22, 2014 (GMT -0600)
Village of Decker Oaks | Change Station
CLOSE
Current Station
Personal Weather Station
Location: Pinehurst, TX
Elevation: 177 ft
Nearby Weather Stations

Elev 177 ft 30.13 °N, 95.65 °W | Updated 7 seconds ago

Overcast
Overcast
59.5 °F
Feels Like 59.5 °F
N
1.1
Wind Variable Wind from SE
Gusts 3.0 mph

Today
High -- | Low -- °F
--% Chance of Precip.
Yesterday
High -- | Low -- °F
Precip. -- in
7:15 AM 5:27 PM
New Moon, 0% visible
Pressure 29.75 in
Visibility 4.0 miles
Clouds Few 2500 ft
Overcast 4200 ft
Dew Point 58 °F
Humidity 95%
Rainfall 0.00 in
Snow Depth Not available.
UV 0.0 out of 12
Pollen 6.20 out of 12
Air Quality Not available.
Flu Activity Not available.
METAR KDWH 221153Z 00000KT 4SM BR FEW025 OVC042 14/14 A2976 RMK AO2 SLP075 T01440139 10144 20139 56018

More Conditions Fewer Conditions

Pressure 29.75 in
Visibility 4.0 miles
Clouds Few 2500 ft
Overcast 4200 ft
Dew Point 58 °F
Humidity 95%
Rainfall 0.00 in
Snow Depth Not available.
UV 0.0 out of 12
Pollen 6.20 out of 12
Air Quality Not available.
Flu Activity Not available.
METAR KDWH 221153Z 00000KT 4SM BR FEW025 OVC042 14/14 A2976 RMK AO2 SLP075 T01440139 10144 20139 56018

More Conditions Fewer Conditions

10-Day Weather Forecast

Almanac

Astronomy

Dec. 22, 2014 Rise Set
Actual Time
Civil Twilight
Nautical Twilight
Astronomical Twilight
Moon
Length of Visible Light
Length of Day
Tomorrow will be .
, % of the Moon is Illuminated

Today's Extremes

State Highs State Lows

Community

WunderPhotos

Upload Photos

1,779,593 photos uploaded!

WunderBlogs® & News

Nearby

Air Quality

  Air Quality AQ Index Pollutant
Not available.

Snow Depth

Station Depth Elevation

Earthquake Activity

City Distance Mag. Time & Date
Minimum magnitude displayed is 2.5.

Coastal Water Temperatures

Place Temperature

Nearby Weather Stations